Portada
METAR-TAF:

METAR-TAF

Aeroports :

Illes Cocos, Austràlia

latitud: 12-11S, longitud: 096-49E, altitud: 3 m

Observació

L'informe es va fer fa 27 minuts, a les 21:30 UTC
Vent 13 kt del Est/Sud-Est
Temperatura 26°C
Humitat 79%
Pressió 1010 hPa
Visibilitat 10 km o més
Núvols disperses a una alçada de 2100 ft
Cel cobert a una alçada de 7000 ft

METAR: YPCC 192130Z AUTO 12013KT 9999 // SCT021 OVC070 26/22 Q1010

Hora: 04:27 (21:57 UTC)

Pronòstic

L'informe es va fer fa 4 hores i 31 minuts, a les 17:26 UTC
Pronòstic vàlid del 19 a les 18 UTC al 20 a les 18 UTC
Vent 13 kt del Est/Sud-Est
Visibilitat 10 km o més
Núvols disperses a una alçada de 2000 ft
Núvols disperses a una alçada de 4000 ft
xàfecs de pluja
A partir de les 20 a les 0900 UTC
Vent 12 kt del Est/Sud-Est
Visibilitat 10 km o més
Núvols disperses a una alçada de 2000 ft

TAF: YPCC 191726Z 1918/2018 12013KT 9999 -SHRA SCT020 SCT040 FM200900 12012KT 9999 NSW SCT020

Observacions i pronòstics meteorològics de més de 4000 aeroports (METAR i TAF).

Les estacions disponibles són els punts grocs i vermells al mapa.

Posi el ratolí al punt desitjat per veure el nom de l'estació.

Feu clic per veure les observacions i els pronòstics meteorològics.

Per canviar el mapa: feu clic els botons verds amb una creu de color negre per apropar; al botó verd amb un guió per allunyar la imatge; o en les fletxes verdes per a mapes adjacents.


METAR-TAF: